sensor_id;sensor_type;location;lat;lon;timestamp;P1;durP1;ratioP1;P2;durP2;ratioP2
28481;SDS011;15703;49.588;6.260;2023-02-28T00:02:56;4.20;;;4.00;;
28481;SDS011;15703;49.588;6.260;2023-02-28T00:06:20;3.53;;;3.43;;
28481;SDS011;15703;49.588;6.260;2023-02-28T00:18:09;3.93;;;3.73;;
28481;SDS011;15703;49.588;6.260;2023-02-28T00:20:57;3.70;;;3.60;;
28481;SDS011;15703;49.588;6.260;2023-02-28T00:23:58;3.33;;;3.23;;
28481;SDS011;15703;49.588;6.260;2023-02-28T00:33:59;4.27;;;3.97;;
28481;SDS011;15703;49.588;6.260;2023-02-28T00:36:22;4.00;;;3.83;;
28481;SDS011;15703;49.588;6.260;2023-02-28T00:38:44;4.13;;;3.93;;
28481;SDS011;15703;49.588;6.260;2023-02-28T00:43:43;4.80;;;4.50;;
28481;SDS011;15703;49.588;6.260;2023-02-28T00:46:06;3.80;;;3.60;;
28481;SDS011;15703;49.588;6.260;2023-02-28T00:48:29;4.40;;;4.10;;
28481;SDS011;15703;49.588;6.260;2023-02-28T00:50:52;4.00;;;3.80;;
28481;SDS011;15703;49.588;6.260;2023-02-28T00:53:15;4.37;;;4.17;;
28481;SDS011;15703;49.588;6.260;2023-02-28T00:55:38;4.10;;;3.90;;
28481;SDS011;15703;49.588;6.260;2023-02-28T00:58:01;4.07;;;3.80;;
28481;SDS011;15703;49.588;6.260;2023-02-28T01:00:23;3.80;;;3.60;;
28481;SDS011;15703;49.588;6.260;2023-02-28T01:02:55;4.40;;;4.20;;
28481;SDS011;15703;49.588;6.260;2023-02-28T01:05:17;4.37;;;4.17;;
28481;SDS011;15703;49.588;6.260;2023-02-28T01:07:40;4.50;;;4.30;;
28481;SDS011;15703;49.588;6.260;2023-02-28T01:10:03;4.40;;;4.20;;
28481;SDS011;15703;49.588;6.260;2023-02-28T01:12:26;4.60;;;4.40;;
28481;SDS011;15703;49.588;6.260;2023-02-28T01:14:51;4.80;;;4.50;;
28481;SDS011;15703;49.588;6.260;2023-02-28T01:17:15;4.53;;;4.23;;
28481;SDS011;15703;49.588;6.260;2023-02-28T01:19:38;4.50;;;4.20;;
28481;SDS011;15703;49.588;6.260;2023-02-28T01:22:04;4.37;;;4.07;;
28481;SDS011;15703;49.588;6.260;2023-02-28T01:24:29;4.47;;;4.10;;
28481;SDS011;15703;49.588;6.260;2023-02-28T01:26:54;4.23;;;4.03;;
28481;SDS011;15703;49.588;6.260;2023-02-28T01:29:17;3.83;;;3.63;;
28481;SDS011;15703;49.588;6.260;2023-02-28T01:31:40;4.23;;;3.97;;
28481;SDS011;15703;49.588;6.260;2023-02-28T01:34:03;4.47;;;4.23;;
28481;SDS011;15703;49.588;6.260;2023-02-28T01:36:25;4.33;;;4.13;;
28481;SDS011;15703;49.588;6.260;2023-02-28T01:38:49;4.50;;;4.30;;
28481;SDS011;15703;49.588;6.260;2023-02-28T01:41:18;4.80;;;4.50;;
28481;SDS011;15703;49.588;6.260;2023-02-28T01:46:08;10.00;;;6.73;;
28481;SDS011;15703;49.588;6.260;2023-02-28T01:48:32;8.20;;;7.60;;
28481;SDS011;15703;49.588;6.260;2023-02-28T01:50:58;5.23;;;4.93;;
28481;SDS011;15703;49.588;6.260;2023-02-28T01:53:26;5.33;;;4.93;;
28481;SDS011;15703;49.588;6.260;2023-02-28T01:55:50;4.30;;;4.10;;
28481;SDS011;15703;49.588;6.260;2023-02-28T01:58:14;4.90;;;4.60;;
28481;SDS011;15703;49.588;6.260;2023-02-28T02:00:37;4.50;;;4.30;;
28481;SDS011;15703;49.588;6.260;2023-02-28T02:03:22;4.30;;;4.10;;
28481;SDS011;15703;49.588;6.260;2023-02-28T02:05:45;4.37;;;4.10;;
28481;SDS011;15703;49.588;6.260;2023-02-28T02:08:10;4.60;;;4.20;;
28481;SDS011;15703;49.588;6.260;2023-02-28T02:10:35;4.50;;;4.20;;
28481;SDS011;15703;49.588;6.260;2023-02-28T02:15:34;4.90;;;4.70;;
28481;SDS011;15703;49.588;6.260;2023-02-28T02:18:01;4.70;;;4.30;;
28481;SDS011;15703;49.588;6.260;2023-02-28T02:20:32;4.90;;;4.50;;
28481;SDS011;15703;49.588;6.260;2023-02-28T02:28:20;5.13;;;4.83;;
28481;SDS011;15703;49.588;6.260;2023-02-28T02:31:49;4.87;;;4.57;;
28481;SDS011;15703;49.588;6.260;2023-02-28T02:33:59;4.77;;;4.47;;
28481;SDS011;15703;49.588;6.260;2023-02-28T02:36:33;5.23;;;5.00;;
28481;SDS011;15703;49.588;6.260;2023-02-28T02:41:46;5.10;;;4.80;;
28481;SDS011;15703;49.588;6.260;2023-02-28T02:46:33;5.43;;;5.10;;
28481;SDS011;15703;49.588;6.260;2023-02-28T02:48:57;5.50;;;5.20;;
28481;SDS011;15703;49.588;6.260;2023-02-28T02:51:22;4.70;;;4.40;;
28481;SDS011;15703;49.588;6.260;2023-02-28T02:53:47;5.43;;;5.13;;
28481;SDS011;15703;49.588;6.260;2023-02-28T02:56:11;5.40;;;4.97;;
28481;SDS011;15703;49.588;6.260;2023-02-28T02:58:35;5.37;;;5.00;;
28481;SDS011;15703;49.588;6.260;2023-02-28T03:01:04;5.40;;;5.10;;
28481;SDS011;15703;49.588;6.260;2023-02-28T03:03:27;5.03;;;4.63;;
28481;SDS011;15703;49.588;6.260;2023-02-28T03:05:51;5.90;;;5.40;;
28481;SDS011;15703;49.588;6.260;2023-02-28T03:08:13;4.83;;;4.53;;
28481;SDS011;15703;49.588;6.260;2023-02-28T03:10:37;4.87;;;4.53;;
28481;SDS011;15703;49.588;6.260;2023-02-28T03:13:12;5.27;;;4.97;;
28481;SDS011;15703;49.588;6.260;2023-02-28T03:21:10;5.07;;;4.70;;
28481;SDS011;15703;49.588;6.260;2023-02-28T03:23:53;4.90;;;4.60;;
28481;SDS011;15703;49.588;6.260;2023-02-28T03:26:19;5.13;;;4.83;;
28481;SDS011;15703;49.588;6.260;2023-02-28T03:33:42;5.70;;;5.10;;
28481;SDS011;15703;49.588;6.260;2023-02-28T03:36:14;4.80;;;4.50;;
28481;SDS011;15703;49.588;6.260;2023-02-28T03:38:39;5.00;;;4.80;;
28481;SDS011;15703;49.588;6.260;2023-02-28T03:43:29;5.77;;;4.67;;
28481;SDS011;15703;49.588;6.260;2023-02-28T03:45:54;5.00;;;4.73;;
28481;SDS011;15703;49.588;6.260;2023-02-28T03:49:19;4.80;;;4.60;;
28481;SDS011;15703;49.588;6.260;2023-02-28T03:51:09;4.87;;;4.57;;
28481;SDS011;15703;49.588;6.260;2023-02-28T03:53:34;5.70;;;5.30;;
28481;SDS011;15703;49.588;6.260;2023-02-28T03:58:26;5.97;;;5.50;;
28481;SDS011;15703;49.588;6.260;2023-02-28T04:01:01;6.00;;;5.60;;
28481;SDS011;15703;49.588;6.260;2023-02-28T04:03:29;9.93;;;4.90;;
28481;SDS011;15703;49.588;6.260;2023-02-28T04:05:53;6.17;;;5.70;;
28481;SDS011;15703;49.588;6.260;2023-02-28T04:08:16;6.20;;;5.80;;
28481;SDS011;15703;49.588;6.260;2023-02-28T04:10:38;5.07;;;4.67;;
28481;SDS011;15703;49.588;6.260;2023-02-28T04:13:00;5.77;;;5.37;;
28481;SDS011;15703;49.588;6.260;2023-02-28T04:15:23;5.67;;;5.37;;
28481;SDS011;15703;49.588;6.260;2023-02-28T04:17:46;5.30;;;5.00;;
28481;SDS011;15703;49.588;6.260;2023-02-28T04:20:08;5.97;;;5.47;;
28481;SDS011;15703;49.588;6.260;2023-02-28T04:22:31;5.87;;;5.47;;
28481;SDS011;15703;49.588;6.260;2023-02-28T04:24:56;5.67;;;5.27;;
28481;SDS011;15703;49.588;6.260;2023-02-28T04:27:21;7.43;;;5.43;;
28481;SDS011;15703;49.588;6.260;2023-02-28T04:29:47;6.00;;;5.60;;
28481;SDS011;15703;49.588;6.260;2023-02-28T04:32:09;5.97;;;5.47;;
28481;SDS011;15703;49.588;6.260;2023-02-28T04:34:34;6.23;;;5.53;;
28481;SDS011;15703;49.588;6.260;2023-02-28T04:36:57;6.00;;;5.70;;
28481;SDS011;15703;49.588;6.260;2023-02-28T04:39:34;6.77;;;5.93;;
28481;SDS011;15703;49.588;6.260;2023-02-28T04:41:58;5.63;;;5.20;;
28481;SDS011;15703;49.588;6.260;2023-02-28T04:44:20;6.40;;;6.00;;
28481;SDS011;15703;49.588;6.260;2023-02-28T04:46:43;6.70;;;6.10;;
28481;SDS011;15703;49.588;6.260;2023-02-28T04:49:05;6.97;;;6.37;;
28481;SDS011;15703;49.588;6.260;2023-02-28T04:51:28;6.97;;;6.33;;
28481;SDS011;15703;49.588;6.260;2023-02-28T04:53:51;7.50;;;6.90;;
28481;SDS011;15703;49.588;6.260;2023-02-28T04:56:14;7.30;;;6.70;;
28481;SDS011;15703;49.588;6.260;2023-02-28T04:58:38;7.80;;;6.20;;
28481;SDS011;15703;49.588;6.260;2023-02-28T05:01:04;6.20;;;5.77;;
28481;SDS011;15703;49.588;6.260;2023-02-28T05:03:34;7.10;;;6.50;;
28481;SDS011;15703;49.588;6.260;2023-02-28T05:05:56;7.40;;;6.77;;
28481;SDS011;15703;49.588;6.260;2023-02-28T05:08:19;7.77;;;7.07;;
28481;SDS011;15703;49.588;6.260;2023-02-28T05:10:42;7.90;;;7.23;;
28481;SDS011;15703;49.588;6.260;2023-02-28T05:13:05;7.83;;;7.03;;
28481;SDS011;15703;49.588;6.260;2023-02-28T05:15:27;8.23;;;7.47;;
28481;SDS011;15703;49.588;6.260;2023-02-28T05:17:52;8.10;;;7.43;;
28481;SDS011;15703;49.588;6.260;2023-02-28T05:20:14;8.33;;;7.73;;
28481;SDS011;15703;49.588;6.260;2023-02-28T05:22:37;8.80;;;7.90;;
28481;SDS011;15703;49.588;6.260;2023-02-28T05:24:59;8.20;;;7.50;;
28481;SDS011;15703;49.588;6.260;2023-02-28T05:27:22;8.37;;;7.57;;
28481;SDS011;15703;49.588;6.260;2023-02-28T05:29:44;8.37;;;7.40;;
28481;SDS011;15703;49.588;6.260;2023-02-28T05:32:10;8.80;;;7.90;;
28481;SDS011;15703;49.588;6.260;2023-02-28T05:34:36;8.63;;;7.83;;
28481;SDS011;15703;49.588;6.260;2023-02-28T05:36:59;9.73;;;7.37;;
28481;SDS011;15703;49.588;6.260;2023-02-28T05:39:23;8.13;;;7.47;;
28481;SDS011;15703;49.588;6.260;2023-02-28T05:41:46;8.30;;;7.60;;
28481;SDS011;15703;49.588;6.260;2023-02-28T05:44:11;9.07;;;8.37;;
28481;SDS011;15703;49.588;6.260;2023-02-28T05:46:36;9.27;;;8.37;;
28481;SDS011;15703;49.588;6.260;2023-02-28T05:49:00;10.40;;;9.40;;
28481;SDS011;15703;49.588;6.260;2023-02-28T05:51:22;9.53;;;8.50;;
28481;SDS011;15703;49.588;6.260;2023-02-28T05:53:52;10.37;;;9.37;;
28481;SDS011;15703;49.588;6.260;2023-02-28T05:56:19;8.90;;;8.20;;
28481;SDS011;15703;49.588;6.260;2023-02-28T05:58:51;9.83;;;8.93;;
28481;SDS011;15703;49.588;6.260;2023-02-28T06:01:24;9.23;;;8.10;;
28481;SDS011;15703;49.588;6.260;2023-02-28T06:04:08;9.17;;;8.37;;
28481;SDS011;15703;49.588;6.260;2023-02-28T06:06:46;9.60;;;8.67;;
28481;SDS011;15703;49.588;6.260;2023-02-28T06:09:12;11.13;;;8.27;;
28481;SDS011;15703;49.588;6.260;2023-02-28T06:11:41;9.60;;;8.60;;
28481;SDS011;15703;49.588;6.260;2023-02-28T06:14:04;11.07;;;9.23;;
28481;SDS011;15703;49.588;6.260;2023-02-28T06:16:58;9.20;;;8.40;;
28481;SDS011;15703;49.588;6.260;2023-02-28T06:19:23;9.93;;;8.93;;
28481;SDS011;15703;49.588;6.260;2023-02-28T06:21:49;8.93;;;8.23;;
28481;SDS011;15703;49.588;6.260;2023-02-28T06:24:13;9.43;;;8.53;;
28481;SDS011;15703;49.588;6.260;2023-02-28T06:26:52;10.80;;;9.73;;
28481;SDS011;15703;49.588;6.260;2023-02-28T06:33:30;10.43;;;9.43;;
28481;SDS011;15703;49.588;6.260;2023-02-28T06:44:14;9.97;;;9.07;;
28481;SDS011;15703;49.588;6.260;2023-02-28T06:46:40;13.87;;;10.90;;
28481;SDS011;15703;49.588;6.260;2023-02-28T06:49:45;13.40;;;9.43;;
28481;SDS011;15703;49.588;6.260;2023-02-28T06:52:07;10.37;;;9.40;;
28481;SDS011;15703;49.588;6.260;2023-02-28T06:54:32;11.80;;;10.47;;
28481;SDS011;15703;49.588;6.260;2023-02-28T06:56:55;10.40;;;9.37;;
28481;SDS011;15703;49.588;6.260;2023-02-28T06:59:31;11.37;;;10.27;;
28481;SDS011;15703;49.588;6.260;2023-02-28T07:01:53;10.77;;;9.87;;
28481;SDS011;15703;49.588;6.260;2023-02-28T07:04:55;12.00;;;10.50;;
28481;SDS011;15703;49.588;6.260;2023-02-28T07:14:48;10.43;;;9.03;;
28481;SDS011;15703;49.588;6.260;2023-02-28T07:17:50;10.57;;;8.97;;
28481;SDS011;15703;49.588;6.260;2023-02-28T07:20:26;10.67;;;9.57;;
28481;SDS011;15703;49.588;6.260;2023-02-28T07:22:56;11.40;;;10.30;;
28481;SDS011;15703;49.588;6.260;2023-02-28T07:25:18;10.77;;;9.73;;
28481;SDS011;15703;49.588;6.260;2023-02-28T07:28:15;9.80;;;8.90;;
28481;SDS011;15703;49.588;6.260;2023-02-28T07:30:42;8.87;;;8.07;;
28481;SDS011;15703;49.588;6.260;2023-02-28T07:33:10;9.63;;;8.73;;
28481;SDS011;15703;49.588;6.260;2023-02-28T07:35:33;10.07;;;9.10;;
28481;SDS011;15703;49.588;6.260;2023-02-28T07:37:59;10.00;;;9.03;;
28481;SDS011;15703;49.588;6.260;2023-02-28T07:40:31;9.50;;;8.60;;
28481;SDS011;15703;49.588;6.260;2023-02-28T07:42:54;9.23;;;8.37;;
28481;SDS011;15703;49.588;6.260;2023-02-28T07:45:17;9.27;;;8.20;;
28481;SDS011;15703;49.588;6.260;2023-02-28T07:47:41;9.07;;;8.27;;
28481;SDS011;15703;49.588;6.260;2023-02-28T07:50:05;7.77;;;7.10;;
28481;SDS011;15703;49.588;6.260;2023-02-28T07:52:41;8.53;;;7.77;;
28481;SDS011;15703;49.588;6.260;2023-02-28T07:55:11;8.20;;;7.50;;
28481;SDS011;15703;49.588;6.260;2023-02-28T07:57:35;8.83;;;8.03;;
28481;SDS011;15703;49.588;6.260;2023-02-28T07:59:58;9.33;;;8.40;;
28481;SDS011;15703;49.588;6.260;2023-02-28T08:02:31;7.97;;;7.20;;
28481;SDS011;15703;49.588;6.260;2023-02-28T08:08:48;8.60;;;7.80;;
28481;SDS011;15703;49.588;6.260;2023-02-28T08:12:32;8.50;;;7.40;;
28481;SDS011;15703;49.588;6.260;2023-02-28T08:15:01;8.60;;;7.70;;
28481;SDS011;15703;49.588;6.260;2023-02-28T08:17:30;8.00;;;6.93;;
28481;SDS011;15703;49.588;6.260;2023-02-28T08:19:56;7.20;;;6.53;;
28481;SDS011;15703;49.588;6.260;2023-02-28T08:22:18;7.57;;;6.87;;
28481;SDS011;15703;49.588;6.260;2023-02-28T08:24:42;9.97;;;7.10;;
28481;SDS011;15703;49.588;6.260;2023-02-28T08:27:06;7.67;;;6.97;;
28481;SDS011;15703;49.588;6.260;2023-02-28T08:29:28;7.63;;;6.83;;
28481;SDS011;15703;49.588;6.260;2023-02-28T08:31:51;8.40;;;7.43;;
28481;SDS011;15703;49.588;6.260;2023-02-28T08:34:14;7.83;;;7.07;;
28481;SDS011;15703;49.588;6.260;2023-02-28T08:36:37;7.60;;;6.73;;
28481;SDS011;15703;49.588;6.260;2023-02-28T08:39:24;6.77;;;6.27;;
28481;SDS011;15703;49.588;6.260;2023-02-28T08:41:52;7.20;;;6.50;;
28481;SDS011;15703;49.588;6.260;2023-02-28T08:44:27;6.93;;;6.33;;
28481;SDS011;15703;49.588;6.260;2023-02-28T08:46:59;6.23;;;5.73;;
28481;SDS011;15703;49.588;6.260;2023-02-28T08:49:32;7.53;;;5.70;;
28481;SDS011;15703;49.588;6.260;2023-02-28T08:52:20;6.10;;;5.57;;
28481;SDS011;15703;49.588;6.260;2023-02-28T08:54:43;6.07;;;5.47;;
28481;SDS011;15703;49.588;6.260;2023-02-28T08:57:26;5.40;;;5.00;;
28481;SDS011;15703;49.588;6.260;2023-02-28T08:59:50;6.20;;;5.70;;
28481;SDS011;15703;49.588;6.260;2023-02-28T09:02:49;5.70;;;5.03;;
28481;SDS011;15703;49.588;6.260;2023-02-28T09:05:41;7.90;;;4.53;;
28481;SDS011;15703;49.588;6.260;2023-02-28T09:08:03;5.73;;;5.23;;
28481;SDS011;15703;49.588;6.260;2023-02-28T09:10:31;5.20;;;4.63;;
28481;SDS011;15703;49.588;6.260;2023-02-28T09:12:57;4.90;;;4.37;;
28481;SDS011;15703;49.588;6.260;2023-02-28T09:15:19;5.00;;;4.40;;
28481;SDS011;15703;49.588;6.260;2023-02-28T09:17:45;5.43;;;4.97;;
28481;SDS011;15703;49.588;6.260;2023-02-28T09:20:11;5.27;;;4.87;;
28481;SDS011;15703;49.588;6.260;2023-02-28T09:22:40;6.00;;;5.50;;
28481;SDS011;15703;49.588;6.260;2023-02-28T09:25:03;5.53;;;4.33;;
28481;SDS011;15703;49.588;6.260;2023-02-28T09:27:31;5.77;;;4.97;;
28481;SDS011;15703;49.588;6.260;2023-02-28T09:29:54;4.67;;;4.27;;
28481;SDS011;15703;49.588;6.260;2023-02-28T09:32:22;5.97;;;5.37;;
28481;SDS011;15703;49.588;6.260;2023-02-28T09:34:48;3.90;;;3.60;;
28481;SDS011;15703;49.588;6.260;2023-02-28T09:37:11;6.70;;;5.43;;
28481;SDS011;15703;49.588;6.260;2023-02-28T09:39:55;5.50;;;5.00;;
28481;SDS011;15703;49.588;6.260;2023-02-28T09:46:03;4.67;;;4.20;;
28481;SDS011;15703;49.588;6.260;2023-02-28T09:48:31;4.20;;;3.80;;
28481;SDS011;15703;49.588;6.260;2023-02-28T09:51:04;12.00;;;6.40;;
28481;SDS011;15703;49.588;6.260;2023-02-28T09:53:32;14.93;;;6.97;;
28481;SDS011;15703;49.588;6.260;2023-02-28T09:55:58;4.50;;;4.10;;
28481;SDS011;15703;49.588;6.260;2023-02-28T10:04:54;4.47;;;4.07;;
28481;SDS011;15703;49.588;6.260;2023-02-28T10:10:04;3.83;;;3.53;;
28481;SDS011;15703;49.588;6.260;2023-02-28T10:12:27;4.43;;;3.90;;
28481;SDS011;15703;49.588;6.260;2023-02-28T10:14:53;3.90;;;3.60;;
28481;SDS011;15703;49.588;6.260;2023-02-28T10:17:22;4.83;;;4.27;;
28481;SDS011;15703;49.588;6.260;2023-02-28T10:22:59;3.70;;;3.40;;
28481;SDS011;15703;49.588;6.260;2023-02-28T10:25:29;5.33;;;4.17;;
28481;SDS011;15703;49.588;6.260;2023-02-28T10:28:04;4.10;;;3.80;;
28481;SDS011;15703;49.588;6.260;2023-02-28T10:30:30;4.23;;;3.93;;
28481;SDS011;15703;49.588;6.260;2023-02-28T10:32:57;5.10;;;4.60;;
28481;SDS011;15703;49.588;6.260;2023-02-28T10:35:20;4.90;;;4.20;;
28481;SDS011;15703;49.588;6.260;2023-02-28T10:37:45;4.30;;;3.67;;
28481;SDS011;15703;49.588;6.260;2023-02-28T10:40:28;4.10;;;3.80;;
28481;SDS011;15703;49.588;6.260;2023-02-28T10:43:33;3.60;;;3.40;;
28481;SDS011;15703;49.588;6.260;2023-02-28T10:45:36;4.33;;;3.93;;
28481;SDS011;15703;49.588;6.260;2023-02-28T10:48:01;4.27;;;3.90;;
28481;SDS011;15703;49.588;6.260;2023-02-28T10:52:49;4.30;;;3.60;;
28481;SDS011;15703;49.588;6.260;2023-02-28T10:55:29;3.90;;;3.60;;
28481;SDS011;15703;49.588;6.260;2023-02-28T10:57:52;4.87;;;4.13;;
28481;SDS011;15703;49.588;6.260;2023-02-28T11:00:19;4.07;;;3.73;;
28481;SDS011;15703;49.588;6.260;2023-02-28T11:02:43;5.30;;;4.33;;
28481;SDS011;15703;49.588;6.260;2023-02-28T11:05:24;4.70;;;4.23;;
28481;SDS011;15703;49.588;6.260;2023-02-28T11:07:50;4.07;;;3.60;;
28481;SDS011;15703;49.588;6.260;2023-02-28T11:10:18;4.37;;;4.00;;
28481;SDS011;15703;49.588;6.260;2023-02-28T11:12:42;5.13;;;3.97;;
28481;SDS011;15703;49.588;6.260;2023-02-28T11:15:26;4.47;;;4.07;;
28481;SDS011;15703;49.588;6.260;2023-02-28T11:17:54;4.43;;;4.00;;
28481;SDS011;15703;49.588;6.260;2023-02-28T11:20:21;4.50;;;4.10;;
28481;SDS011;15703;49.588;6.260;2023-02-28T11:22:45;4.50;;;4.00;;
28481;SDS011;15703;49.588;6.260;2023-02-28T11:25:09;4.70;;;3.57;;
28481;SDS011;15703;49.588;6.260;2023-02-28T11:27:48;4.60;;;3.63;;
28481;SDS011;15703;49.588;6.260;2023-02-28T11:32:52;4.90;;;4.33;;
28481;SDS011;15703;49.588;6.260;2023-02-28T11:35:17;4.60;;;4.20;;
28481;SDS011;15703;49.588;6.260;2023-02-28T11:37:43;7.97;;;4.73;;
28481;SDS011;15703;49.588;6.260;2023-02-28T11:48:20;3.87;;;3.57;;
28481;SDS011;15703;49.588;6.260;2023-02-28T11:56:32;7.20;;;4.77;;
28481;SDS011;15703;49.588;6.260;2023-02-28T11:59:20;5.23;;;4.73;;
28481;SDS011;15703;49.588;6.260;2023-02-28T12:04:22;6.33;;;4.20;;
28481;SDS011;15703;49.588;6.260;2023-02-28T12:06:52;5.33;;;4.83;;
28481;SDS011;15703;49.588;6.260;2023-02-28T12:17:22;4.80;;;4.33;;
28481;SDS011;15703;49.588;6.260;2023-02-28T12:27:17;5.20;;;4.70;;
28481;SDS011;15703;49.588;6.260;2023-02-28T12:29:43;4.67;;;4.27;;
28481;SDS011;15703;49.588;6.260;2023-02-28T12:34:35;4.83;;;4.43;;
28481;SDS011;15703;49.588;6.260;2023-02-28T12:37:03;4.70;;;4.30;;
28481;SDS011;15703;49.588;6.260;2023-02-28T12:39:33;4.73;;;4.33;;
28481;SDS011;15703;49.588;6.260;2023-02-28T12:42:15;4.77;;;4.33;;
28481;SDS011;15703;49.588;6.260;2023-02-28T12:44:45;6.93;;;4.43;;
28481;SDS011;15703;49.588;6.260;2023-02-28T12:47:12;4.70;;;4.10;;
28481;SDS011;15703;49.588;6.260;2023-02-28T12:49:58;4.63;;;4.23;;
28481;SDS011;15703;49.588;6.260;2023-02-28T12:52:35;5.17;;;4.03;;
28481;SDS011;15703;49.588;6.260;2023-02-28T12:57:36;4.77;;;4.37;;
28481;SDS011;15703;49.588;6.260;2023-02-28T13:00:05;4.83;;;4.43;;
28481;SDS011;15703;49.588;6.260;2023-02-28T13:09:59;4.73;;;4.33;;
28481;SDS011;15703;49.588;6.260;2023-02-28T13:12:23;4.97;;;4.57;;
28481;SDS011;15703;49.588;6.260;2023-02-28T13:14:46;5.03;;;4.53;;
28481;SDS011;15703;49.588;6.260;2023-02-28T13:17:12;4.90;;;4.50;;
28481;SDS011;15703;49.588;6.260;2023-02-28T13:19:36;5.20;;;4.77;;
28481;SDS011;15703;49.588;6.260;2023-02-28T13:21:59;4.70;;;4.30;;
28481;SDS011;15703;49.588;6.260;2023-02-28T13:29:35;4.50;;;4.13;;
28481;SDS011;15703;49.588;6.260;2023-02-28T13:34:28;5.00;;;4.23;;
28481;SDS011;15703;49.588;6.260;2023-02-28T13:36:50;6.10;;;4.60;;
28481;SDS011;15703;49.588;6.260;2023-02-28T13:41:56;4.63;;;4.27;;
28481;SDS011;15703;49.588;6.260;2023-02-28T13:44:30;6.13;;;4.60;;
28481;SDS011;15703;49.588;6.260;2023-02-28T13:52:54;5.27;;;4.77;;
28481;SDS011;15703;49.588;6.260;2023-02-28T13:55:24;7.37;;;4.37;;
28481;SDS011;15703;49.588;6.260;2023-02-28T14:05:05;5.50;;;4.80;;
28481;SDS011;15703;49.588;6.260;2023-02-28T14:07:31;5.40;;;4.80;;
28481;SDS011;15703;49.588;6.260;2023-02-28T14:09:59;4.87;;;4.47;;
28481;SDS011;15703;49.588;6.260;2023-02-28T14:17:53;5.60;;;5.00;;
28481;SDS011;15703;49.588;6.260;2023-02-28T14:20:26;4.80;;;4.40;;
28481;SDS011;15703;49.588;6.260;2023-02-28T14:22:52;5.33;;;4.90;;
28481;SDS011;15703;49.588;6.260;2023-02-28T14:30:40;5.10;;;4.70;;
28481;SDS011;15703;49.588;6.260;2023-02-28T14:35:50;5.13;;;4.63;;
28481;SDS011;15703;49.588;6.260;2023-02-28T14:38:27;5.13;;;4.63;;
28481;SDS011;15703;49.588;6.260;2023-02-28T14:40:54;5.83;;;4.93;;
28481;SDS011;15703;49.588;6.260;2023-02-28T14:43:21;5.30;;;4.90;;
28481;SDS011;15703;49.588;6.260;2023-02-28T14:45:48;5.53;;;5.10;;
28481;SDS011;15703;49.588;6.260;2023-02-28T14:48:14;5.30;;;4.90;;
28481;SDS011;15703;49.588;6.260;2023-02-28T14:50:38;6.07;;;5.47;;
28481;SDS011;15703;49.588;6.260;2023-02-28T14:53:00;5.67;;;5.17;;
28481;SDS011;15703;49.588;6.260;2023-02-28T14:55:26;5.73;;;4.50;;
28481;SDS011;15703;49.588;6.260;2023-02-28T14:57:54;5.00;;;4.60;;
28481;SDS011;15703;49.588;6.260;2023-02-28T15:00:28;6.43;;;4.83;;
28481;SDS011;15703;49.588;6.260;2023-02-28T15:02:51;5.23;;;4.73;;
28481;SDS011;15703;49.588;6.260;2023-02-28T15:07:38;5.33;;;4.83;;
28481;SDS011;15703;49.588;6.260;2023-02-28T15:10:18;5.13;;;4.73;;
28481;SDS011;15703;49.588;6.260;2023-02-28T15:12:40;5.47;;;4.37;;
28481;SDS011;15703;49.588;6.260;2023-02-28T15:15:04;6.10;;;5.50;;
28481;SDS011;15703;49.588;6.260;2023-02-28T15:17:28;6.27;;;5.10;;
28481;SDS011;15703;49.588;6.260;2023-02-28T15:19:51;5.20;;;4.70;;
28481;SDS011;15703;49.588;6.260;2023-02-28T15:22:15;5.57;;;5.03;;
28481;SDS011;15703;49.588;6.260;2023-02-28T15:24:41;5.30;;;4.57;;
28481;SDS011;15703;49.588;6.260;2023-02-28T15:27:07;5.73;;;4.70;;
28481;SDS011;15703;49.588;6.260;2023-02-28T15:29:33;5.20;;;4.70;;
28481;SDS011;15703;49.588;6.260;2023-02-28T15:32:03;5.03;;;4.53;;
28481;SDS011;15703;49.588;6.260;2023-02-28T15:39:57;6.47;;;4.83;;
28481;SDS011;15703;49.588;6.260;2023-02-28T15:42:23;5.10;;;4.60;;
28481;SDS011;15703;49.588;6.260;2023-02-28T15:44:52;5.70;;;5.13;;
28481;SDS011;15703;49.588;6.260;2023-02-28T15:49:47;5.37;;;4.87;;
28481;SDS011;15703;49.588;6.260;2023-02-28T15:52:15;6.10;;;5.23;;
28481;SDS011;15703;49.588;6.260;2023-02-28T15:54:48;5.80;;;5.30;;
28481;SDS011;15703;49.588;6.260;2023-02-28T15:57:14;5.43;;;4.93;;
28481;SDS011;15703;49.588;6.260;2023-02-28T15:59:48;5.50;;;5.00;;
28481;SDS011;15703;49.588;6.260;2023-02-28T16:02:21;8.53;;;5.53;;
28481;SDS011;15703;49.588;6.260;2023-02-28T16:04:55;5.53;;;4.63;;
28481;SDS011;15703;49.588;6.260;2023-02-28T16:07:19;5.30;;;4.80;;
28481;SDS011;15703;49.588;6.260;2023-02-28T16:09:41;5.90;;;5.40;;
28481;SDS011;15703;49.588;6.260;2023-02-28T16:12:03;6.10;;;5.43;;
28481;SDS011;15703;49.588;6.260;2023-02-28T16:14:27;6.67;;;5.17;;
28481;SDS011;15703;49.588;6.260;2023-02-28T16:16:53;5.23;;;4.73;;
28481;SDS011;15703;49.588;6.260;2023-02-28T16:19:15;5.53;;;5.00;;
28481;SDS011;15703;49.588;6.260;2023-02-28T16:21:42;5.93;;;5.30;;
28481;SDS011;15703;49.588;6.260;2023-02-28T16:24:04;7.10;;;5.33;;
28481;SDS011;15703;49.588;6.260;2023-02-28T16:26:27;7.03;;;6.33;;
28481;SDS011;15703;49.588;6.260;2023-02-28T16:29:11;6.03;;;5.43;;
28481;SDS011;15703;49.588;6.260;2023-02-28T16:31:37;7.20;;;5.20;;
28481;SDS011;15703;49.588;6.260;2023-02-28T16:34:00;8.43;;;7.63;;
28481;SDS011;15703;49.588;6.260;2023-02-28T16:36:23;6.43;;;5.77;;
28481;SDS011;15703;49.588;6.260;2023-02-28T16:38:47;5.40;;;4.87;;
28481;SDS011;15703;49.588;6.260;2023-02-28T16:41:11;8.20;;;7.40;;
28481;SDS011;15703;49.588;6.260;2023-02-28T16:43:44;6.40;;;5.60;;
28481;SDS011;15703;49.588;6.260;2023-02-28T16:46:08;6.50;;;5.80;;
28481;SDS011;15703;49.588;6.260;2023-02-28T16:48:32;6.10;;;5.50;;
28481;SDS011;15703;49.588;6.260;2023-02-28T16:50:54;6.77;;;6.07;;
28481;SDS011;15703;49.588;6.260;2023-02-28T16:53:19;7.40;;;6.07;;
28481;SDS011;15703;49.588;6.260;2023-02-28T16:55:48;7.57;;;6.13;;
28481;SDS011;15703;49.588;6.260;2023-02-28T16:58:14;7.47;;;6.70;;
28481;SDS011;15703;49.588;6.260;2023-02-28T17:00:37;7.37;;;6.53;;
28481;SDS011;15703;49.588;6.260;2023-02-28T17:02:59;6.83;;;5.97;;
28481;SDS011;15703;49.588;6.260;2023-02-28T17:05:25;6.50;;;5.90;;
28481;SDS011;15703;49.588;6.260;2023-02-28T17:07:49;8.83;;;6.67;;
28481;SDS011;15703;49.588;6.260;2023-02-28T17:10:20;7.03;;;6.33;;
28481;SDS011;15703;49.588;6.260;2023-02-28T17:12:43;12.77;;;8.77;;
28481;SDS011;15703;49.588;6.260;2023-02-28T17:15:06;9.17;;;7.97;;
28481;SDS011;15703;49.588;6.260;2023-02-28T17:17:31;10.43;;;8.17;;
28481;SDS011;15703;49.588;6.260;2023-02-28T17:19:54;10.63;;;8.00;;
28481;SDS011;15703;49.588;6.260;2023-02-28T17:22:16;7.70;;;7.03;;
28481;SDS011;15703;49.588;6.260;2023-02-28T17:24:40;7.77;;;6.17;;
28481;SDS011;15703;49.588;6.260;2023-02-28T17:27:02;6.97;;;6.37;;
28481;SDS011;15703;49.588;6.260;2023-02-28T17:29:25;7.67;;;6.97;;
28481;SDS011;15703;49.588;6.260;2023-02-28T17:31:47;6.43;;;5.83;;
28481;SDS011;15703;49.588;6.260;2023-02-28T17:34:10;7.07;;;6.37;;
28481;SDS011;15703;49.588;6.260;2023-02-28T17:36:36;6.23;;;5.63;;
28481;SDS011;15703;49.588;6.260;2023-02-28T17:38:58;6.70;;;5.67;;
28481;SDS011;15703;49.588;6.260;2023-02-28T17:41:20;5.57;;;4.90;;
28481;SDS011;15703;49.588;6.260;2023-02-28T17:43:43;6.00;;;5.40;;
28481;SDS011;15703;49.588;6.260;2023-02-28T17:46:06;5.63;;;5.13;;
28481;SDS011;15703;49.588;6.260;2023-02-28T17:48:33;6.17;;;5.57;;
28481;SDS011;15703;49.588;6.260;2023-02-28T17:50:59;5.33;;;4.83;;
28481;SDS011;15703;49.588;6.260;2023-02-28T17:53:22;5.53;;;5.03;;
28481;SDS011;15703;49.588;6.260;2023-02-28T17:55:50;6.50;;;5.40;;
28481;SDS011;15703;49.588;6.260;2023-02-28T17:58:13;6.07;;;5.57;;